createdAt,value
2018-12-14T00:03:46.886Z,37.07
2018-12-14T00:08:41.736Z,42.03
2018-12-14T00:13:34.802Z,42.87
2018-12-14T00:18:28.081Z,37.23
2018-12-14T00:23:21.301Z,38.80
2018-12-14T00:28:14.778Z,38.63
2018-12-14T00:33:08.266Z,38.30
2018-12-14T00:38:01.568Z,41.57
2018-12-14T00:42:54.604Z,31.87
2018-12-14T00:47:47.827Z,37.23
2018-12-14T00:52:41.153Z,37.07
2018-12-14T00:57:34.215Z,37.40
2018-12-14T01:02:29.344Z,41.17
2018-12-14T01:07:22.421Z,36.03
2018-12-14T01:12:15.384Z,35.63
2018-12-14T01:17:08.965Z,36.93
2018-12-14T01:22:02.451Z,36.33
2018-12-14T01:26:55.701Z,39.47
2018-12-14T01:31:48.584Z,38.77
2018-12-14T01:36:41.558Z,33.33
2018-12-14T01:41:34.829Z,33.27
2018-12-14T01:46:27.711Z,37.90
2018-12-14T01:51:20.664Z,36.70
2018-12-14T01:56:14.040Z,36.43
2018-12-14T02:01:07.021Z,31.27
2018-12-14T02:06:00.080Z,33.40
2018-12-14T02:10:54.891Z,37.20
2018-12-14T02:15:48.369Z,36.10
2018-12-14T02:20:41.273Z,36.13
2018-12-14T02:25:35.137Z,33.57
2018-12-14T02:30:43.254Z,32.87
2018-12-14T02:35:36.596Z,36.70
2018-12-14T02:40:29.665Z,37.67
2018-12-14T02:45:22.670Z,36.20
2018-12-14T02:50:15.635Z,36.30
2018-12-14T02:55:09.626Z,34.83
2018-12-14T03:00:08.226Z,33.50
2018-12-14T03:05:01.232Z,40.20
2018-12-14T03:09:54.165Z,34.20
2018-12-14T03:14:47.991Z,37.97
2018-12-14T03:19:41.176Z,38.70
2018-12-14T03:24:34.468Z,38.97
2018-12-14T03:29:27.571Z,42.33
2018-12-14T03:34:21.562Z,45.67
2018-12-14T03:39:15.147Z,47.87
2018-12-14T03:44:08.746Z,41.63
2018-12-14T03:49:01.907Z,43.90
2018-12-14T03:53:55.074Z,41.33
2018-12-14T03:58:48.745Z,53.27
2018-12-14T04:03:41.832Z,46.40
2018-12-14T04:08:35.172Z,44.83
2018-12-14T04:13:28.279Z,44.83
2018-12-14T04:18:22.174Z,45.00
2018-12-14T04:23:15.249Z,61.67
2018-12-14T04:28:08.209Z,57.17
2018-12-14T04:33:01.278Z,52.40
2018-12-14T04:37:55.637Z,51.47
2018-12-14T04:42:49.135Z,48.87
2018-12-14T04:47:42.510Z,45.87
2018-12-14T04:52:35.717Z,51.30
2018-12-14T04:57:29.885Z,46.03
2018-12-14T05:02:23.081Z,48.07
2018-12-14T05:07:16.126Z,44.00
2018-12-14T05:12:09.225Z,44.27
2018-12-14T05:17:02.296Z,52.53
2018-12-14T05:21:55.876Z,58.13
2018-12-14T05:26:49.370Z,46.73
2018-12-14T05:31:42.321Z,44.60
2018-12-14T05:36:36.655Z,45.47
2018-12-14T05:41:31.312Z,52.13
2018-12-14T05:46:25.565Z,43.93
2018-12-14T05:51:18.699Z,45.10
2018-12-14T05:56:12.067Z,51.27
2018-12-14T06:01:06.787Z,48.07
2018-12-14T06:06:01.360Z,47.90
2018-12-14T06:10:55.396Z,49.20
2018-12-14T06:15:48.357Z,47.93
2018-12-14T06:20:42.724Z,47.40
2018-12-14T06:25:38.197Z,45.63
2018-12-14T06:30:32.007Z,49.20
2018-12-14T06:35:26.991Z,44.07
2018-12-14T06:40:20.060Z,48.40
2018-12-14T06:45:14.186Z,43.47
2018-12-14T06:50:07.735Z,44.83
2018-12-14T06:55:10.010Z,43.80
2018-12-14T07:00:04.395Z,51.60
2018-12-14T07:05:01.381Z,51.33
2018-12-14T07:09:55.536Z,48.67
2018-12-14T07:14:51.415Z,43.70
2018-12-14T07:19:45.509Z,42.73
2018-12-14T07:24:39.373Z,40.10
2018-12-14T07:29:32.300Z,41.50
2018-12-14T07:34:25.355Z,36.50
2018-12-14T07:39:18.198Z,43.43
2018-12-14T07:44:12.225Z,40.60
2018-12-14T07:49:06.406Z,43.20
2018-12-14T07:53:59.971Z,37.93
2018-12-14T07:58:54.296Z,37.20
2018-12-14T08:03:51.961Z,42.73
2018-12-14T08:08:45.610Z,37.97
2018-12-14T08:13:39.635Z,34.80
2018-12-14T08:18:35.359Z,38.50
2018-12-14T08:23:28.847Z,41.53
2018-12-14T08:28:22.543Z,38.03
2018-12-14T08:33:16.038Z,31.30
2018-12-14T08:38:11.302Z,36.63
2018-12-14T08:43:06.455Z,34.33
2018-12-14T08:48:00.068Z,37.93
2018-12-14T08:52:53.409Z,36.60
2018-12-14T08:57:46.495Z,37.50
2018-12-14T09:02:40.782Z,36.03
2018-12-14T09:07:37.123Z,37.83
2018-12-14T09:12:31.119Z,34.03
2018-12-14T09:17:25.255Z,34.27
2018-12-14T09:22:18.489Z,39.53
2018-12-14T09:27:13.595Z,33.87
2018-12-14T09:32:10.298Z,36.60
2018-12-14T09:37:03.381Z,37.40
2018-12-14T09:41:56.606Z,32.73
2018-12-14T09:46:57.357Z,37.63
2018-12-14T09:51:51.182Z,35.40
2018-12-14T09:56:45.023Z,36.57
2018-12-14T10:01:38.720Z,36.13
2018-12-14T10:06:32.402Z,39.77
2018-12-14T10:11:25.745Z,35.63
2018-12-14T10:16:18.972Z,31.10
2018-12-14T10:21:13.552Z,33.33
2018-12-14T10:26:09.087Z,33.77
2018-12-14T10:31:04.990Z,35.97
2018-12-14T10:35:58.558Z,38.13
2018-12-14T10:40:55.407Z,37.43
2018-12-14T10:45:49.622Z,31.07
2018-12-14T10:50:45.154Z,35.77
2018-12-14T10:55:38.877Z,33.70
2018-12-14T11:05:58.942Z,33.03
2018-12-14T11:10:55.599Z,32.57
2018-12-14T11:15:50.587Z,34.50
2018-12-14T11:20:46.110Z,33.47
2018-12-14T11:25:39.961Z,39.73
2018-12-14T11:30:35.183Z,35.93
2018-12-14T11:35:29.504Z,39.67
2018-12-14T11:40:23.421Z,31.87
2018-12-14T11:45:16.716Z,30.47
2018-12-14T11:50:09.767Z,37.23
2018-12-14T11:55:03.072Z,36.73
2018-12-14T11:59:58.047Z,35.57
2018-12-14T12:04:51.673Z,32.70
2018-12-14T12:09:46.324Z,33.53
2018-12-14T12:14:41.254Z,30.60
2018-12-14T12:19:34.704Z,37.10
2018-12-14T12:24:30.671Z,35.23
2018-12-14T12:29:23.947Z,33.60
2018-12-14T12:34:18.460Z,34.00
2018-12-14T12:39:11.522Z,32.97
2018-12-14T12:44:05.521Z,32.60
2018-12-14T12:48:59.560Z,36.07
2018-12-14T12:53:52.575Z,35.80
2018-12-14T12:58:46.432Z,33.57
2018-12-14T13:03:40.426Z,35.20
2018-12-14T13:08:56.195Z,35.80
2018-12-14T13:13:50.026Z,28.53
2018-12-14T13:18:43.223Z,35.63
2018-12-14T13:23:36.472Z,32.67
2018-12-14T13:28:33.878Z,35.17
2018-12-14T13:33:28.101Z,36.47
2018-12-14T13:38:21.039Z,38.13
2018-12-14T13:43:18.201Z,38.03
2018-12-14T13:48:11.692Z,40.10
2018-12-14T13:53:08.157Z,41.03
2018-12-14T13:58:01.418Z,39.93
2018-12-14T14:02:56.114Z,34.57
2018-12-14T14:07:48.983Z,40.20
2018-12-14T14:12:44.323Z,39.77
2018-12-14T14:17:38.006Z,35.37
2018-12-14T14:22:31.062Z,37.53
2018-12-14T14:27:25.765Z,36.97
2018-12-14T14:32:19.245Z,33.77
2018-12-14T14:37:13.852Z,39.57
2018-12-14T14:42:08.006Z,33.90
2018-12-14T14:47:01.136Z,42.33
2018-12-14T14:51:54.602Z,40.60
2018-12-14T14:56:47.469Z,49.37
2018-12-14T15:01:40.846Z,51.40
2018-12-14T15:06:35.982Z,47.70
2018-12-14T15:11:29.504Z,53.23
2018-12-14T15:16:23.539Z,50.40
2018-12-14T15:21:16.776Z,48.17
2018-12-14T15:26:09.680Z,46.20
2018-12-14T15:31:02.648Z,54.07
2018-12-14T15:35:55.618Z,54.17
2018-12-14T15:40:48.994Z,49.47
2018-12-14T15:45:42.875Z,58.40
2018-12-14T15:50:36.725Z,58.23
2018-12-14T15:55:30.916Z,50.97
2018-12-14T16:00:24.348Z,52.13
2018-12-14T16:05:17.315Z,68.13
2018-12-14T16:10:12.241Z,54.07
2018-12-14T16:15:09.201Z,53.23
2018-12-14T16:20:02.190Z,53.90
2018-12-14T16:24:55.030Z,58.30
2018-12-14T16:29:49.330Z,53.20
2018-12-14T16:34:43.216Z,52.93
2018-12-14T16:39:37.822Z,48.37
2018-12-14T16:44:30.892Z,50.90
2018-12-14T16:49:24.901Z,50.50
2018-12-14T16:54:17.953Z,53.60
2018-12-14T16:59:11.506Z,50.13
2018-12-14T17:04:05.530Z,53.13
2018-12-14T17:08:58.600Z,47.47
2018-12-14T17:13:52.170Z,52.93
2018-12-14T17:18:46.976Z,52.17
2018-12-14T17:23:39.963Z,49.33
2018-12-14T17:28:34.080Z,49.57
2018-12-14T17:33:36.166Z,54.87
2018-12-14T17:38:29.732Z,53.90
2018-12-14T17:43:23.630Z,55.57
2018-12-14T17:48:16.682Z,46.70
2018-12-14T17:53:09.681Z,50.07
2018-12-14T17:58:04.066Z,46.03
2018-12-14T18:02:57.772Z,46.03
2018-12-14T18:07:50.703Z,45.10
2018-12-14T18:12:45.119Z,51.87
2018-12-14T18:17:38.694Z,46.70
2018-12-14T18:22:31.872Z,44.83
2018-12-14T18:27:25.011Z,46.57
2018-12-14T18:32:18.074Z,44.57
2018-12-14T18:37:11.175Z,45.07
2018-12-14T18:42:04.456Z,43.17
2018-12-14T18:46:57.725Z,42.70
2018-12-14T18:51:50.899Z,37.73
2018-12-14T18:56:43.871Z,43.43
2018-12-14T19:01:36.939Z,39.90
2018-12-14T19:06:30.835Z,47.73
2018-12-14T19:11:24.819Z,41.80
2018-12-14T19:16:18.095Z,42.80
2018-12-14T19:21:11.278Z,36.30
2018-12-14T19:26:04.645Z,44.20
2018-12-14T19:30:57.560Z,40.37
2018-12-14T19:35:50.482Z,36.17
2018-12-14T19:40:45.142Z,36.07
2018-12-14T19:45:38.155Z,34.90
2018-12-14T19:50:30.931Z,42.50
2018-12-14T19:55:24.156Z,37.13
2018-12-14T20:00:18.304Z,40.83
2018-12-14T20:05:12.011Z,40.07
2018-12-14T20:10:06.621Z,38.60
2018-12-14T20:14:59.450Z,36.43
2018-12-14T20:19:53.132Z,36.87
2018-12-14T20:24:46.100Z,36.30
2018-12-14T20:29:39.066Z,37.10
2018-12-14T20:34:31.972Z,34.07
2018-12-14T20:39:25.296Z,36.33
2018-12-14T20:44:18.180Z,33.43
2018-12-14T20:49:11.143Z,36.13
2018-12-14T20:54:04.061Z,37.10
2018-12-14T20:58:57.488Z,33.83
2018-12-14T21:03:50.675Z,34.17
2018-12-14T21:08:43.733Z,34.63
2018-12-14T21:13:36.803Z,33.47
2018-12-14T21:18:29.979Z,32.57
2018-12-14T21:23:23.642Z,31.50
2018-12-14T21:28:17.038Z,33.60
2018-12-14T21:33:10.008Z,32.40
2018-12-14T21:38:05.025Z,30.00
2018-12-14T21:42:58.094Z,27.13
2018-12-14T21:47:51.370Z,26.13
2018-12-14T21:52:44.338Z,25.13
2018-12-14T21:57:39.712Z,22.87
2018-12-14T22:02:34.395Z,24.33
2018-12-14T22:07:27.338Z,25.03
2018-12-14T22:12:20.547Z,24.77
2018-12-14T22:17:13.579Z,29.83
2018-12-14T22:22:06.651Z,25.37
2018-12-14T22:26:59.725Z,27.83
2018-12-14T22:31:53.566Z,28.07
2018-12-14T22:36:46.579Z,28.13
2018-12-14T22:41:39.855Z,29.80
2018-12-14T22:46:32.925Z,27.50
2018-12-14T22:51:27.170Z,30.07
2018-12-14T22:56:20.097Z,32.27
2018-12-14T23:01:13.071Z,29.63
2018-12-14T23:06:06.232Z,29.77
2018-12-14T23:10:59.507Z,33.50
2018-12-14T23:15:52.781Z,34.53
2018-12-14T23:20:47.226Z,32.50
2018-12-14T23:25:41.575Z,33.63
2018-12-14T23:30:35.244Z,34.23
2018-12-14T23:35:28.341Z,34.93
2018-12-14T23:40:21.405Z,38.30
2018-12-14T23:45:14.378Z,33.70
2018-12-14T23:50:08.577Z,37.60
2018-12-14T23:55:01.854Z,38.97
2018-12-14T23:59:54.821Z,41.97
